createdAt,value
2023-03-04T00:01:16.461Z,20.90
2023-03-04T00:03:45.828Z,14.77
2023-03-04T00:06:15.507Z,19.50
2023-03-04T00:08:44.953Z,18.05
2023-03-04T00:11:14.480Z,19.75
2023-03-04T00:13:45.277Z,17.02
2023-03-04T00:16:14.818Z,17.83
2023-03-04T00:18:44.186Z,13.13
2023-03-04T00:21:13.772Z,15.48
2023-03-04T00:23:43.784Z,17.30
2023-03-04T00:26:13.691Z,18.15
2023-03-04T00:28:46.565Z,11.23
2023-03-04T00:31:16.409Z,14.52
2023-03-04T00:33:45.713Z,22.13
2023-03-04T00:36:15.229Z,14.02
2023-03-04T00:38:44.848Z,16.60
2023-03-04T00:41:14.410Z,19.17
2023-03-04T00:43:45.539Z,17.85
2023-03-04T00:46:15.542Z,15.05
2023-03-04T00:48:44.828Z,16.20
2023-03-04T00:51:14.340Z,20.30
2023-03-04T00:53:44.140Z,11.73
2023-03-04T00:56:13.636Z,19.98
2023-03-04T00:58:43.015Z,17.08
2023-03-04T01:01:14.484Z,15.55
2023-03-04T01:03:43.915Z,16.45
2023-03-04T01:06:13.772Z,20.25
2023-03-04T01:08:43.057Z,12.88
2023-03-04T01:11:12.790Z,14.35
2023-03-04T01:13:42.794Z,19.08
2023-03-04T01:16:14.243Z,14.40
2023-03-04T01:18:43.521Z,16.08
2023-03-04T01:21:13.158Z,20.35
2023-03-04T01:23:42.499Z,23.67
2023-03-04T01:26:12.172Z,15.25
2023-03-04T01:28:41.520Z,22.98
2023-03-04T01:31:11.163Z,11.75
2023-03-04T01:33:41.911Z,12.02
2023-03-04T01:36:13.261Z,10.45
2023-03-04T01:38:42.678Z,15.23
2023-03-04T01:41:13.434Z,17.70
2023-03-04T01:43:43.166Z,19.52
2023-03-04T01:46:15.223Z,17.92
2023-03-04T01:48:46.896Z,18.70
2023-03-04T01:51:19.042Z,18.70
2023-03-04T01:53:50.336Z,16.63
2023-03-04T01:56:24.161Z,15.23
2023-03-04T01:59:11.623Z,13.48
2023-03-04T02:01:43.123Z,22.55
2023-03-04T02:04:15.218Z,19.15
2023-03-04T02:06:46.183Z,22.73
2023-03-04T02:09:17.806Z,17.95
2023-03-04T02:11:49.354Z,16.98
2023-03-04T02:14:19.418Z,11.85
2023-03-04T02:16:50.708Z,17.13
2023-03-04T02:19:38.740Z,11.20
2023-03-04T02:22:08.572Z,11.13
2023-03-04T02:24:42.690Z,14.10
2023-03-04T02:27:13.970Z,12.35
2023-03-04T02:29:43.490Z,17.40
2023-03-04T02:32:14.601Z,14.38
2023-03-04T02:34:48.792Z,10.63
2023-03-04T02:37:19.989Z,14.18
2023-03-04T02:39:51.625Z,17.30
2023-03-04T02:42:22.607Z,18.58
2023-03-04T02:45:01.379Z,22.42
2023-03-04T02:47:31.293Z,23.13
2023-03-04T02:50:00.798Z,13.18
2023-03-04T02:52:30.718Z,16.92
2023-03-04T02:55:00.429Z,11.20
2023-03-04T02:57:31.572Z,19.58
2023-03-04T03:00:00.874Z,16.35
2023-03-04T03:02:31.098Z,20.98
2023-03-04T03:05:00.773Z,9.57
2023-03-04T03:07:31.142Z,10.82
2023-03-04T03:10:01.528Z,10.57
2023-03-04T03:12:32.787Z,16.13
2023-03-04T03:15:02.205Z,13.50
2023-03-04T03:17:31.887Z,16.95
2023-03-04T03:20:01.522Z,14.32
2023-03-04T03:22:31.420Z,17.20
2023-03-04T03:25:00.682Z,10.95
2023-03-04T03:27:32.036Z,14.57
2023-03-04T03:30:01.640Z,11.10
2023-03-04T03:33:56.025Z,14.90
2023-03-04T03:36:25.833Z,11.07
2023-03-04T03:38:55.235Z,7.20
2023-03-04T03:41:24.862Z,18.45
2023-03-04T03:43:55.491Z,10.25
2023-03-04T03:46:25.201Z,17.52
2023-03-04T03:48:54.431Z,13.65
2023-03-04T03:51:24.000Z,13.63
2023-03-04T03:53:53.526Z,13.27
2023-03-04T03:56:23.121Z,11.70
2023-03-04T03:58:52.349Z,9.05
2023-03-04T04:01:23.497Z,12.05
2023-03-04T04:03:52.805Z,16.13
2023-03-04T04:06:22.504Z,10.20
2023-03-04T04:08:51.767Z,9.65
2023-03-04T04:11:21.464Z,16.27
2023-03-04T04:13:50.793Z,12.65
2023-03-04T04:16:20.663Z,11.05
2023-03-04T04:18:51.421Z,14.35
2023-03-04T04:21:21.008Z,11.52
2023-03-04T04:23:50.531Z,9.90
2023-03-04T04:26:20.089Z,9.57
2023-03-04T04:28:49.675Z,5.68
2023-03-04T04:31:19.217Z,11.68
2023-03-04T04:33:48.444Z,10.88
2023-03-04T04:36:19.390Z,10.95
2023-03-04T04:38:49.499Z,9.05
2023-03-04T04:41:22.393Z,10.95
2023-03-04T04:43:51.802Z,11.80
2023-03-04T04:46:21.768Z,9.20
2023-03-04T04:48:51.249Z,10.18
2023-03-04T04:51:22.212Z,16.23
2023-03-04T04:53:51.685Z,12.95
2023-03-04T04:56:24.761Z,7.78
2023-03-04T04:58:55.429Z,10.55
2023-03-04T05:01:25.640Z,9.95
2023-03-04T05:03:55.567Z,14.27
2023-03-04T05:06:26.701Z,9.48
2023-03-04T05:08:56.175Z,11.80
2023-03-04T05:11:25.875Z,6.05
2023-03-04T05:13:55.177Z,13.25
2023-03-04T05:16:25.206Z,9.70
2023-03-04T05:18:54.499Z,5.75
2023-03-04T05:21:25.450Z,14.48
2023-03-04T05:23:54.780Z,9.43
2023-03-04T05:26:24.297Z,5.75
2023-03-04T05:28:53.466Z,11.90
2023-03-04T05:31:23.255Z,5.97
2023-03-04T05:33:52.708Z,8.05
2023-03-04T05:36:22.300Z,9.63
2023-03-04T05:38:53.175Z,11.70
2023-03-04T05:41:23.048Z,8.57
2023-03-04T05:43:52.574Z,4.60
2023-03-04T05:46:25.715Z,12.13
2023-03-04T05:48:55.914Z,5.50
2023-03-04T05:51:25.571Z,6.40
2023-03-04T05:53:56.214Z,8.57
2023-03-04T05:56:25.756Z,9.32
2023-03-04T05:58:57.885Z,9.85
2023-03-04T06:01:27.735Z,14.18
2023-03-04T06:03:56.982Z,8.50
2023-03-04T06:06:26.594Z,10.80
2023-03-04T06:08:57.182Z,11.52
2023-03-04T06:11:26.776Z,9.80
2023-03-04T06:13:56.207Z,10.93
2023-03-04T06:16:25.973Z,11.48
2023-03-04T06:18:55.323Z,10.75
2023-03-04T06:21:25.159Z,6.13
2023-03-04T06:23:54.565Z,11.35
2023-03-04T06:26:25.708Z,8.35
2023-03-04T06:28:57.149Z,4.90
2023-03-04T06:31:26.924Z,5.57
2023-03-04T06:33:56.313Z,6.75
2023-03-04T06:36:26.339Z,5.78
2023-03-04T06:38:55.808Z,6.20
2023-03-04T06:41:26.930Z,6.68
2023-03-04T06:43:56.333Z,3.65
2023-03-04T06:46:26.060Z,8.30
2023-03-04T06:48:55.806Z,4.72
2023-03-04T06:51:25.354Z,3.70
2023-03-04T06:53:54.637Z,6.35
2023-03-04T06:56:25.529Z,11.18
2023-03-04T06:58:54.959Z,6.82
2023-03-04T07:01:27.944Z,5.18
2023-03-04T07:03:58.592Z,9.90
2023-03-04T07:06:29.499Z,7.78
2023-03-04T07:08:59.229Z,12.40
2023-03-04T07:11:30.352Z,6.35
2023-03-04T07:14:00.411Z,7.90
2023-03-04T07:16:30.349Z,9.20
2023-03-04T07:18:59.883Z,5.82
2023-03-04T07:21:29.865Z,6.30
2023-03-04T07:23:59.223Z,6.40
2023-03-04T07:26:30.141Z,3.40
2023-03-04T07:29:00.012Z,6.32
2023-03-04T07:31:32.115Z,4.78
2023-03-04T07:34:03.532Z,3.70
2023-03-04T07:36:34.730Z,2.50
2023-03-04T07:39:05.052Z,7.63
2023-03-04T07:41:37.318Z,6.07
2023-03-04T07:44:08.084Z,3.47
2023-03-04T07:46:37.764Z,3.03
2023-03-04T07:49:07.491Z,8.88
2023-03-04T07:51:37.301Z,6.68
2023-03-04T07:54:06.907Z,4.32
2023-03-04T07:56:38.177Z,9.52
2023-03-04T07:59:07.589Z,8.48
2023-03-04T08:01:39.244Z,4.22
2023-03-04T08:04:09.608Z,2.47
2023-03-04T08:06:41.295Z,7.38
2023-03-04T08:09:13.615Z,4.13
2023-03-04T08:11:44.888Z,3.00
2023-03-04T08:14:15.024Z,1.73
2023-03-04T08:16:44.659Z,5.53
2023-03-04T08:19:14.639Z,3.10
2023-03-04T08:21:44.465Z,2.67
2023-03-04T08:24:14.125Z,1.73
2023-03-04T08:26:47.360Z,2.92
2023-03-04T08:29:19.120Z,3.85
2023-03-04T08:31:49.383Z,2.47
2023-03-04T08:39:33.449Z,3.00
2023-03-04T08:56:33.332Z,1.90
2023-03-04T08:59:02.627Z,6.45
2023-03-04T09:01:32.213Z,2.63
2023-03-04T09:04:01.629Z,1.23
2023-03-04T09:06:31.211Z,2.85
2023-03-04T09:09:00.500Z,2.15
2023-03-04T09:11:30.211Z,7.85
2023-03-04T09:14:00.820Z,2.60
2023-03-04T09:16:30.371Z,2.30
2023-03-04T09:19:01.135Z,1.05
2023-03-04T09:21:30.624Z,0.98
2023-03-04T09:24:00.014Z,1.10
2023-03-04T09:26:31.087Z,4.13
2023-03-04T09:29:03.436Z,0.50
2023-03-04T09:31:33.225Z,1.02
2023-03-04T09:34:02.846Z,2.42
2023-03-04T09:36:32.393Z,2.22
2023-03-04T09:39:02.425Z,1.42
2023-03-04T09:41:39.295Z,4.07
2023-03-04T09:44:20.713Z,1.83
2023-03-04T09:46:51.392Z,2.58
2023-03-04T09:49:22.188Z,3.63
2023-03-04T09:52:00.280Z,3.22
2023-03-04T09:54:48.247Z,5.18
2023-03-04T09:57:29.280Z,7.90
2023-03-04T10:00:13.807Z,4.30
2023-03-04T10:02:59.737Z,3.78
2023-03-04T10:05:31.420Z,10.18
2023-03-04T10:08:07.190Z,4.25
2023-03-04T10:10:43.957Z,2.67
2023-03-04T10:13:18.166Z,3.13
2023-03-04T10:15:51.814Z,2.70
2023-03-04T10:18:25.171Z,1.48
2023-03-04T10:20:59.763Z,3.08
2023-03-04T10:23:32.389Z,1.37
2023-03-04T10:26:11.401Z,2.60
2023-03-04T10:28:41.894Z,1.92
2023-03-04T10:31:18.854Z,3.47
2023-03-04T10:33:48.494Z,0.95
2023-03-04T10:36:34.662Z,5.40
2023-03-04T10:39:08.806Z,3.13
2023-03-04T10:41:43.111Z,1.27
2023-03-04T10:44:18.363Z,2.63
2023-03-04T10:46:50.460Z,1.90
2023-03-04T10:49:21.397Z,1.77
2023-03-04T10:51:53.314Z,4.07
2023-03-04T10:54:32.460Z,1.48
2023-03-04T10:57:03.957Z,1.48
2023-03-04T10:59:40.579Z,2.15
2023-03-04T11:02:21.311Z,4.32
2023-03-04T11:04:54.235Z,2.63
2023-03-04T11:07:25.378Z,3.47
2023-03-04T11:09:58.209Z,3.55
2023-03-04T11:12:35.438Z,5.35
2023-03-04T11:15:05.953Z,1.73
2023-03-04T11:17:48.387Z,0.85
2023-03-04T11:20:27.720Z,2.42
2023-03-04T11:23:04.429Z,2.13
2023-03-04T11:25:37.055Z,4.25
2023-03-04T11:28:14.449Z,3.50
2023-03-04T11:30:48.048Z,3.65
2023-03-04T11:33:26.465Z,1.90
2023-03-04T11:36:05.112Z,2.17
2023-03-04T11:38:37.799Z,3.05
2023-03-04T11:41:12.759Z,4.00
2023-03-04T11:43:46.295Z,3.28
2023-03-04T11:46:42.097Z,3.17
2023-03-04T11:49:42.310Z,4.80
2023-03-04T11:52:24.555Z,11.20
2023-03-04T11:55:18.140Z,2.22
2023-03-04T11:57:57.700Z,2.10
2023-03-04T12:00:40.150Z,3.97
2023-03-04T12:03:38.501Z,4.25
2023-03-04T12:06:18.343Z,2.20
2023-03-04T12:09:03.595Z,2.85
2023-03-04T12:11:43.859Z,3.55
2023-03-04T12:14:25.466Z,7.40
2023-03-04T12:17:13.585Z,7.93
2023-03-04T12:20:00.083Z,7.80
2023-03-04T12:22:43.744Z,3.42
2023-03-04T12:25:34.580Z,1.95
2023-03-04T12:28:23.690Z,2.83
2023-03-04T12:31:09.321Z,3.33
2023-03-04T12:33:47.014Z,3.03
2023-03-04T12:36:24.348Z,1.52
2023-03-04T12:39:07.268Z,3.75
2023-03-04T12:41:47.637Z,3.33
2023-03-04T12:44:19.344Z,1.17
2023-03-04T12:47:14.423Z,3.85
2023-03-04T12:49:54.159Z,3.90
2023-03-04T12:52:33.795Z,4.20
2023-03-04T12:55:09.532Z,2.95
2023-03-04T12:57:40.565Z,6.07
2023-03-04T13:00:21.552Z,3.92
2023-03-04T13:03:03.443Z,2.85
2023-03-04T13:06:03.948Z,4.18
2023-03-04T13:08:40.753Z,3.85
2023-03-04T13:11:41.793Z,3.60
2023-03-04T13:14:27.444Z,2.15
2023-03-04T13:17:01.607Z,2.53
2023-03-04T13:19:52.897Z,2.80
2023-03-04T13:22:55.461Z,3.45
2023-03-04T13:25:44.062Z,7.38
2023-03-04T13:28:29.448Z,3.13
2023-03-04T13:31:18.567Z,8.32
2023-03-04T13:33:57.759Z,2.00
2023-03-04T13:36:56.070Z,4.07
2023-03-04T13:39:38.118Z,4.32
2023-03-04T13:42:46.225Z,2.67
2023-03-04T13:45:39.198Z,6.20
2023-03-04T13:48:33.343Z,3.53
2023-03-04T13:51:03.179Z,3.25
2023-03-04T13:53:43.017Z,1.10
2023-03-04T13:56:24.047Z,3.20
2023-03-04T13:59:03.599Z,1.90
2023-03-04T14:01:36.287Z,2.17
2023-03-04T14:04:18.144Z,2.13
2023-03-04T14:06:48.713Z,2.25
2023-03-04T14:09:21.908Z,2.00
2023-03-04T14:11:52.678Z,2.78
2023-03-04T14:14:25.411Z,3.00
2023-03-04T14:16:59.062Z,3.10
2023-03-04T14:19:31.284Z,10.30
2023-03-04T14:22:02.054Z,1.73
2023-03-04T14:24:32.350Z,5.25
2023-03-04T14:27:14.883Z,1.27
2023-03-04T14:29:44.459Z,5.63
2023-03-04T14:32:15.633Z,3.22
2023-03-04T14:34:45.177Z,3.30
2023-03-04T14:37:26.910Z,1.67
2023-03-04T14:39:59.896Z,4.38
2023-03-04T14:42:38.843Z,2.53
2023-03-04T14:45:12.320Z,1.83
2023-03-04T14:47:47.568Z,2.67
2023-03-04T14:50:19.952Z,3.45
2023-03-04T14:52:51.950Z,3.83
2023-03-04T14:55:26.566Z,4.75
2023-03-04T14:58:07.430Z,4.18
2023-03-04T15:00:39.139Z,3.10
2023-03-04T15:03:21.992Z,4.93
2023-03-04T15:05:52.986Z,3.17
2023-03-04T15:08:26.005Z,3.53
2023-03-04T15:10:58.295Z,1.70
2023-03-04T15:13:40.798Z,3.17
2023-03-04T15:16:11.736Z,3.33
2023-03-04T15:18:56.412Z,2.40
2023-03-04T15:21:40.873Z,8.77
2023-03-04T15:24:13.658Z,3.20
2023-03-04T15:26:46.142Z,4.43
2023-03-04T15:29:17.933Z,2.55
2023-03-04T15:31:49.121Z,2.05
2023-03-04T15:34:22.089Z,6.40
2023-03-04T15:36:52.702Z,2.63
2023-03-04T15:39:23.530Z,2.03
2023-03-04T15:41:53.435Z,3.08
2023-03-04T15:44:22.766Z,3.47
2023-03-04T15:46:52.566Z,2.65
2023-03-04T15:49:23.456Z,3.83
2023-03-04T15:51:53.815Z,1.90
2023-03-04T15:54:27.165Z,3.55
2023-03-04T15:56:58.492Z,2.00
2023-03-04T15:59:28.183Z,1.98
2023-03-04T16:01:57.686Z,4.07
2023-03-04T16:04:28.596Z,1.90
2023-03-04T16:07:00.994Z,3.83
2023-03-04T16:09:30.819Z,2.60
2023-03-04T16:12:02.121Z,3.75
2023-03-04T16:14:31.379Z,3.30
2023-03-04T16:17:00.940Z,3.05
2023-03-04T16:19:31.678Z,4.70
2023-03-04T16:22:01.383Z,7.20
2023-03-04T16:24:33.579Z,4.65
2023-03-04T16:27:06.209Z,4.65
2023-03-04T16:29:35.493Z,3.83
2023-03-04T16:32:05.186Z,6.55
2023-03-04T16:34:35.872Z,5.60
2023-03-04T16:37:13.619Z,4.47
2023-03-04T16:39:46.239Z,5.70
2023-03-04T16:42:19.170Z,11.25
2023-03-04T16:44:49.145Z,11.32
2023-03-04T16:47:18.746Z,6.10
2023-03-04T16:49:50.413Z,6.85
2023-03-04T16:52:26.170Z,5.68
2023-03-04T16:54:55.884Z,15.35
2023-03-04T16:57:28.478Z,12.23
2023-03-04T16:59:57.963Z,4.78
2023-03-04T17:02:27.858Z,15.13
2023-03-04T17:04:59.467Z,6.25
2023-03-04T17:07:29.311Z,7.25
2023-03-04T17:09:58.577Z,11.70
2023-03-04T17:12:28.107Z,7.10
2023-03-04T17:14:57.470Z,7.40
2023-03-04T17:17:27.979Z,6.03
2023-03-04T17:19:59.007Z,3.05
2023-03-04T17:22:28.612Z,6.63
2023-03-04T17:24:58.026Z,6.63
2023-03-04T17:27:27.734Z,6.10
2023-03-04T17:29:57.240Z,4.15
2023-03-04T17:32:27.572Z,10.40
2023-03-04T17:34:58.294Z,4.38
2023-03-04T17:37:28.309Z,8.88
2023-03-04T17:39:57.711Z,12.02
2023-03-04T17:42:27.582Z,14.52
2023-03-04T17:44:56.946Z,10.65
2023-03-04T17:47:26.735Z,11.30
2023-03-04T17:49:57.377Z,7.43
2023-03-04T17:52:27.016Z,11.70
2023-03-04T17:54:56.377Z,13.95
2023-03-04T17:57:25.936Z,21.33
2023-03-04T17:59:56.237Z,13.65
2023-03-04T18:02:25.818Z,10.00
2023-03-04T18:04:55.111Z,14.32
2023-03-04T18:07:26.205Z,11.45
2023-03-04T18:09:55.595Z,8.65
2023-03-04T18:12:25.133Z,12.55
2023-03-04T18:14:54.465Z,11.52
2023-03-04T18:17:24.000Z,9.38
2023-03-04T18:19:53.286Z,14.15
2023-03-04T18:22:22.794Z,14.05
2023-03-04T18:24:53.537Z,18.58
2023-03-04T18:27:23.289Z,14.65
2023-03-04T18:29:52.807Z,22.85
2023-03-04T18:32:22.594Z,28.27
2023-03-04T18:34:51.862Z,16.85
2023-03-04T18:37:21.614Z,23.20
2023-03-04T18:39:52.482Z,19.15
2023-03-04T18:42:22.593Z,21.27
2023-03-04T18:44:51.991Z,18.98
2023-03-04T18:47:21.940Z,24.25
2023-03-04T18:49:51.890Z,22.98
2023-03-04T18:52:21.729Z,30.65
2023-03-04T18:54:52.411Z,31.50
2023-03-04T18:57:22.110Z,26.92
2023-03-04T18:59:53.998Z,22.00
2023-03-04T19:02:27.639Z,23.48
2023-03-04T19:05:04.668Z,30.48
2023-03-04T19:07:34.666Z,25.67
2023-03-04T19:10:05.565Z,25.02
2023-03-04T19:12:35.370Z,19.35
2023-03-04T19:15:05.813Z,17.17
2023-03-04T19:17:36.152Z,22.33
2023-03-04T19:20:07.202Z,28.80
2023-03-04T19:22:37.514Z,25.50
2023-03-04T19:25:09.667Z,35.17
2023-03-04T19:27:39.276Z,26.67
2023-03-04T19:30:10.229Z,25.05
2023-03-04T19:32:39.945Z,25.73
2023-03-04T19:35:10.709Z,15.73
2023-03-04T19:37:40.690Z,12.05
2023-03-04T19:40:12.780Z,13.00
2023-03-04T19:42:44.753Z,13.00
2023-03-04T19:45:15.046Z,16.15
2023-03-04T19:47:45.062Z,15.52
2023-03-04T19:50:14.712Z,22.23
2023-03-04T19:52:46.751Z,19.83
2023-03-04T19:55:17.749Z,36.60
2023-03-04T19:57:47.437Z,29.77
2023-03-04T20:00:17.737Z,20.77
2023-03-04T20:02:49.174Z,16.13
2023-03-04T20:05:19.163Z,14.52
2023-03-04T20:07:48.679Z,12.98
2023-03-04T20:10:19.781Z,9.77
2023-03-04T20:12:49.424Z,14.90
2023-03-04T20:15:18.842Z,14.82
2023-03-04T20:17:48.391Z,19.30
2023-03-04T20:20:18.032Z,15.55
2023-03-04T20:22:47.639Z,19.80
2023-03-04T20:25:18.450Z,13.55
2023-03-04T20:27:48.236Z,17.40
2023-03-04T20:30:18.120Z,18.52
2023-03-04T20:32:48.945Z,18.23
2023-03-04T20:35:18.399Z,21.13
2023-03-04T20:37:48.138Z,14.43
2023-03-04T20:40:19.722Z,15.13
2023-03-04T20:42:49.538Z,15.82
2023-03-04T20:45:20.339Z,15.73
2023-03-04T20:47:50.331Z,21.65
2023-03-04T20:50:19.638Z,13.15
2023-03-04T20:52:49.783Z,13.27
2023-03-04T20:55:20.546Z,14.82
2023-03-04T20:57:50.329Z,11.93
2023-03-04T21:00:24.408Z,17.67
2023-03-04T21:02:55.185Z,17.10
2023-03-04T21:05:24.898Z,10.85
2023-03-04T21:07:56.863Z,17.08
2023-03-04T21:10:27.883Z,12.65
2023-03-04T21:13:00.517Z,12.30
2023-03-04T21:15:29.993Z,13.40
2023-03-04T21:17:59.704Z,12.80
2023-03-04T21:20:29.385Z,12.10
2023-03-04T21:22:59.222Z,24.13
2023-03-04T21:25:31.130Z,20.88
2023-03-04T21:28:00.775Z,26.95
2023-03-04T21:30:30.180Z,13.68
2023-03-04T21:33:00.485Z,14.73
2023-03-04T21:35:30.048Z,13.02
2023-03-04T21:37:59.654Z,10.02
2023-03-04T21:40:30.309Z,11.57
2023-03-04T21:43:00.518Z,12.00
2023-03-04T21:45:29.834Z,14.48
2023-03-04T21:47:59.494Z,9.27
2023-03-04T21:50:29.058Z,10.07
2023-03-04T21:52:58.732Z,13.02
2023-03-04T21:55:28.002Z,9.20
2023-03-04T21:57:59.095Z,9.02
2023-03-04T22:00:28.446Z,6.57
2023-03-04T22:02:58.193Z,12.20
2023-03-04T22:05:27.579Z,7.82
2023-03-04T22:07:57.187Z,8.25
2023-03-04T22:10:26.540Z,9.93
2023-03-04T22:12:57.542Z,7.10
2023-03-04T22:15:26.954Z,10.98
2023-03-04T22:17:56.635Z,7.93
2023-03-04T22:20:26.006Z,12.00
2023-03-04T22:22:55.553Z,5.28
2023-03-04T22:25:24.931Z,9.20
2023-03-04T22:27:54.653Z,8.25
2023-03-04T22:30:25.454Z,10.48
2023-03-04T22:32:55.039Z,7.13
2023-03-04T22:35:24.350Z,8.88
2023-03-04T22:37:54.156Z,9.43
2023-03-04T22:40:23.491Z,10.93
2023-03-04T22:42:53.135Z,8.35
2023-03-04T22:45:22.696Z,5.18
2023-03-04T22:47:54.051Z,7.65
2023-03-04T22:50:23.648Z,8.68
2023-03-04T22:52:53.368Z,10.35
2023-03-04T22:55:24.090Z,57.80
2023-03-04T22:57:53.633Z,92.13
2023-03-04T23:00:25.240Z,10.52
2023-03-04T23:02:56.731Z,12.02
2023-03-04T23:05:25.993Z,35.63
2023-03-04T23:07:55.712Z,57.63
2023-03-04T23:10:26.425Z,13.55
2023-03-04T23:12:55.969Z,12.45
2023-03-04T23:15:25.343Z,13.85
2023-03-04T23:17:56.342Z,15.13
2023-03-04T23:20:25.571Z,11.85
2023-03-04T23:22:55.090Z,10.65
2023-03-04T23:25:25.010Z,13.07
2023-03-04T23:27:54.689Z,6.68
2023-03-04T23:30:23.958Z,6.47
2023-03-04T23:32:53.465Z,3.38
2023-03-04T23:35:24.223Z,4.32
2023-03-04T23:37:53.788Z,4.55
2023-03-04T23:40:23.041Z,11.27
2023-03-04T23:42:52.590Z,8.48
2023-03-04T23:45:21.930Z,4.75
2023-03-04T23:47:51.530Z,6.13
2023-03-04T23:50:21.327Z,12.52
2023-03-04T23:52:52.268Z,8.45
2023-03-04T23:55:22.280Z,5.70
2023-03-04T23:57:51.771Z,3.42
